Time;durP1;ratioP1;P1;durP2;ratioP2;P2;SDS_P1;SDS_P2;PMS_P1;PMS_P2;Temp;Humidity;BMP_temperature;BMP_pressure;BME280_temperature;BME280_humidity;BME280_pressure;Samples;Min_cycle;Max_cycle;Signal;HPM_P1;HPM_P2
2024/04/08 00:01:17;;;;;;;15.23;14.23;;;22.30;78.10;;;;;;5071900;28;20230;-71
2024/04/08 00:03:45;;;;;;;12.83;12.07;;;22.30;76.50;;;;;;5072662;28;20238;-73
2024/04/08 00:06:12;;;;;;;12.77;12.00;;;22.20;76.70;;;;;;5072830;28;20179;-73
2024/04/08 00:08:39;;;;;;;11.33;10.63;;;22.20;76.80;;;;;;5069027;28;20234;-72
2024/04/08 00:11:07;;;;;;;10.67;10.07;;;22.30;76.50;;;;;;5070222;28;20186;-72
2024/04/08 00:13:38;;;;;;;10.93;10.27;;;22.30;76.80;;;;;;5075404;28;20206;-73
2024/04/08 00:16:08;;;;;;;9.30;8.53;;;22.40;76.60;;;;;;5077196;28;20175;-72
2024/04/08 00:18:35;;;;;;;8.83;8.13;;;22.50;76.00;;;;;;5074347;28;20748;-72
2024/04/08 00:21:06;;;;;;;7.93;7.23;;;22.70;76.50;;;;;;5072090;28;20540;-71
2024/04/08 00:23:34;;;;;;;6.33;5.77;;;22.90;75.20;;;;;;5075785;28;20320;-72
2024/04/08 00:26:06;;;;;;;9.03;5.83;;;23.00;73.70;;;;;;5060429;28;20641;-71
2024/04/08 00:28:39;;;;;;;5.33;5.00;;;22.80;74.70;;;;;;5075753;28;20190;-71
2024/04/08 00:31:07;;;;;;;6.43;5.83;;;22.50;75.70;;;;;;5070943;28;20180;-71
2024/04/08 00:33:35;;;;;;;6.37;5.80;;;22.30;76.00;;;;;;5073391;28;20191;-71
2024/04/08 00:36:04;;;;;;;6.13;5.63;;;22.30;76.60;;;;;;5073363;28;20187;-71
2024/04/08 00:38:31;;;;;;;7.10;4.50;;;22.80;75.10;;;;;;5053608;28;20191;-72
2024/04/08 00:41:02;;;;;;;9.53;2.70;;;23.10;73.70;;;;;;5068283;28;20435;-73
2024/04/08 00:43:30;;;;;;;5.40;2.43;;;23.30;71.80;;;;;;5071963;28;20680;-71
2024/04/08 00:45:57;;;;;;;8.77;2.33;;;23.40;71.20;;;;;;5075404;28;20202;-73
2024/04/08 00:48:25;;;;;;;4.00;2.10;;;23.70;71.00;;;;;;5069076;28;20270;-72
2024/04/08 00:50:55;;;;;;;5.70;1.90;;;24.00;69.90;;;;;;5076129;28;20661;-72
2024/04/08 00:53:24;;;;;;;4.23;1.30;;;23.90;68.80;;;;;;5074612;28;20200;-71
2024/04/08 00:55:53;;;;;;;4.07;1.37;;;23.90;68.80;;;;;;5064103;28;20195;-71
2024/04/08 00:58:21;;;;;;;2.57;1.20;;;24.00;69.10;;;;;;5075087;28;20179;-74
2024/04/08 01:00:49;;;;;;;5.13;1.40;;;24.20;68.40;;;;;;5069707;28;20182;-71
2024/04/08 01:03:17;;;;;;;3.40;1.00;;;24.00;68.60;;;;;;5072364;28;20211;-71
2024/04/08 01:05:49;;;;;;;5.77;1.10;;;24.10;69.30;;;;;;5070354;28;20270;-72
2024/04/08 01:08:17;;;;;;;4.03;1.10;;;23.80;69.30;;;;;;5075234;28;20179;-71
2024/04/08 01:10:44;;;;;;;4.80;1.03;;;23.90;69.60;;;;;;5078730;28;20233;-72
2024/04/08 01:13:11;;;;;;;6.83;1.10;;;24.20;69.90;;;;;;5071227;28;20187;-71
2024/04/08 01:15:39;;;;;;;2.80;1.30;;;24.40;68.00;;;;;;5074177;28;20178;-71
2024/04/08 01:18:06;;;;;;;5.07;1.10;;;24.50;67.80;;;;;;5072351;28;20176;-71
2024/04/08 01:20:34;;;;;;;3.07;1.33;;;24.80;66.60;;;;;;5077513;28;20179;-73
2024/04/08 01:23:02;;;;;;;4.40;1.00;;;24.90;66.10;;;;;;5057841;28;20211;-71
2024/04/08 01:25:30;;;;;;;6.03;0.90;;;24.80;66.80;;;;;;5080186;28;20182;-72
2024/04/08 01:27:57;;;;;;;2.03;1.10;;;25.20;66.40;;;;;;5070504;28;20190;-71
2024/04/08 01:30:25;;;;;;;1.53;1.03;;;25.00;65.60;;;;;;5075668;28;20187;-71
2024/04/08 01:32:52;;;;;;;2.87;0.80;;;24.90;65.00;;;;;;5075286;28;20242;-72
2024/04/08 01:35:19;;;;;;;3.23;1.10;;;25.00;65.30;;;;;;5072789;28;20184;-71
2024/04/08 01:37:47;;;;;;;2.43;0.93;;;25.20;65.40;;;;;;5078387;28;20195;-71
2024/04/08 01:40:14;;;;;;;5.20;1.30;;;25.20;65.70;;;;;;5081284;28;20217;-71
2024/04/08 01:42:42;;;;;;;4.27;1.10;;;25.00;66.70;;;;;;5077857;28;20649;-72
2024/04/08 01:45:09;;;;;;;5.23;1.20;;;24.90;68.20;;;;;;5077921;28;20183;-70
2024/04/08 01:47:36;;;;;;;1.87;1.07;;;25.30;67.90;;;;;;5075219;28;20194;-71
2024/04/08 01:50:04;;;;;;;2.83;0.90;;;25.70;66.80;;;;;;5083707;28;20286;-71
2024/04/08 01:52:31;;;;;;;2.83;0.90;;;26.00;64.80;;;;;;5078509;28;20652;-70
2024/04/08 01:54:58;;;;;;;5.70;1.10;;;26.20;63.90;;;;;;5074873;28;20524;-72
2024/04/08 01:57:27;;;;;;;4.60;1.83;;;26.20;64.30;;;;;;5079807;28;20522;-73
2024/04/08 01:59:55;;;;;;;6.37;1.30;;;26.30;63.50;;;;;;5074342;28;20664;-72
2024/04/08 02:02:22;;;;;;;5.70;1.43;;;26.30;62.50;;;;;;5078286;28;20211;-71
2024/04/08 02:04:50;;;;;;;5.13;1.77;;;26.30;62.70;;;;;;5068326;28;20187;-71
2024/04/08 02:07:18;;;;;;;3.53;1.20;;;26.30;62.60;;;;;;5074844;28;20195;-71
2024/04/08 02:09:45;;;;;;;4.17;1.40;;;26.40;62.50;;;;;;5078800;28;20175;-74
2024/04/08 02:12:12;;;;;;;4.20;1.30;;;26.70;61.20;;;;;;5077092;28;20187;-71
2024/04/08 02:14:39;;;;;;;3.83;1.00;;;26.40;62.20;;;;;;5081161;28;20278;-71
2024/04/08 02:17:07;;;;;;;3.73;1.47;;;26.10;61.80;;;;;;5082177;28;20192;-72
2024/04/08 02:19:34;;;;;;;2.17;1.30;;;25.80;62.00;;;;;;5079221;28;20179;-71
2024/04/08 02:22:01;;;;;;;6.10;1.50;;;25.40;62.80;;;;;;5069525;28;20186;-71
2024/04/08 02:24:29;;;;;;;4.70;1.50;;;25.30;62.40;;;;;;5078668;28;20206;-70
2024/04/08 02:26:56;;;;;;;5.33;1.07;;;25.30;63.30;;;;;;5075103;28;20190;-72
2024/04/08 02:29:23;;;;;;;4.77;1.50;;;25.70;62.10;;;;;;5072443;28;20180;-72
2024/04/08 02:31:51;;;;;;;4.20;1.37;;;26.40;61.00;;;;;;5072558;28;20658;-72
2024/04/08 02:34:18;;;;;;;6.07;1.30;;;26.80;58.00;;;;;;5075384;28;20174;-71
2024/04/08 02:36:45;;;;;;;12.47;1.90;;;26.90;58.30;;;;;;5077833;28;20616;-73
2024/04/08 02:39:13;;;;;;;6.83;1.90;;;27.30;57.50;;;;;;5058135;28;20272;-71
2024/04/08 02:41:40;;;;;;;4.67;1.27;;;27.50;56.60;;;;;;5073273;28;20179;-72
2024/04/08 02:44:07;;;;;;;6.87;1.67;;;27.80;56.80;;;;;;5077537;28;20218;-72
2024/04/08 02:46:34;;;;;;;4.70;1.37;;;27.70;56.40;;;;;;5071945;28;20182;-72
2024/04/08 02:49:02;;;;;;;3.70;1.30;;;28.00;55.80;;;;;;5073840;28;20187;-72
2024/04/08 02:51:31;;;;;;;5.17;1.33;;;28.00;54.40;;;;;;5076578;28;20229;-70
2024/04/08 02:53:58;;;;;;;3.83;1.37;;;27.70;54.80;;;;;;5080039;28;20404;-73
2024/04/08 02:56:26;;;;;;;4.33;1.27;;;27.70;55.20;;;;;;5073627;28;20219;-72
2024/04/08 02:58:53;;;;;;;3.67;1.23;;;27.90;54.10;;;;;;5077069;28;20191;-71
2024/04/08 03:01:20;;;;;;;6.87;1.60;;;28.10;54.40;;;;;;5075253;28;20224;-71
2024/04/08 03:03:48;;;;;;;6.03;1.57;;;27.70;56.00;;;;;;5079065;28;20214;-71
2024/04/08 03:06:18;;;;;;;12.93;1.90;;;27.00;58.20;;;;;;5072285;28;20179;-71
2024/04/08 03:08:46;;;;;;;5.83;1.60;;;26.80;58.80;;;;;;5099048;28;20615;-71
2024/04/08 03:11:13;;;;;;;7.47;2.03;;;26.80;58.00;;;;;;5072414;28;20226;-72
2024/04/08 03:13:41;;;;;;;9.97;1.90;;;27.30;56.80;;;;;;5074844;28;20186;-73
2024/04/08 03:16:08;;;;;;;8.10;1.63;;;27.70;55.50;;;;;;5052240;28;20183;-72
2024/04/08 03:18:36;;;;;;;6.20;1.60;;;28.10;55.10;;;;;;5082130;28;20532;-71
2024/04/08 03:21:05;;;;;;;9.60;1.60;;;27.30;56.40;;;;;;5074665;28;20191;-72
2024/04/08 03:23:33;;;;;;;6.07;1.90;;;26.40;58.50;;;;;;5075316;28;20199;-73
2024/04/08 03:26:05;;;;;;;9.87;2.17;;;26.30;60.10;;;;;;5072054;28;20325;-73
2024/04/08 03:28:33;;;;;;;5.27;1.40;;;26.60;58.70;;;;;;5085313;28;20530;-72
2024/04/08 03:31:05;;;;;;;4.23;1.40;;;26.40;58.50;;;;;;5071861;28;20179;-72
2024/04/08 03:33:33;;;;;;;7.40;1.60;;;26.30;59.50;;;;;;5081003;28;20177;-70
2024/04/08 03:36:02;;;;;;;8.17;1.40;;;26.00;59.50;;;;;;5072185;28;20190;-73
2024/04/08 03:38:29;;;;;;;4.73;1.40;;;25.60;60.60;;;;;;5080079;28;20197;-73
2024/04/08 03:41:04;;;;;;;7.43;1.50;;;25.30;61.00;;;;;;5073466;28;20194;-73
2024/04/08 03:43:32;;;;;;;5.33;1.60;;;25.00;62.30;;;;;;5101293;28;20266;-71
2024/04/08 03:48:21;;;;;;;8.10;1.53;;;24.90;63.10;;;;;;5362588;25;20599;-71
2024/04/08 03:50:57;;;;;;;5.40;1.60;;;24.70;64.90;;;;;;5396438;26;20354;-73
2024/04/08 03:53:25;;;;;;;8.87;1.80;;;24.50;65.00;;;;;;5338851;26;20251;-72
2024/04/08 03:55:52;;;;;;;12.90;2.27;;;24.60;65.70;;;;;;5340508;26;20355;-73
2024/04/08 03:58:20;;;;;;;6.80;1.90;;;24.60;66.10;;;;;;5341827;26;20345;-74
2024/04/08 04:00:47;;;;;;;11.30;1.93;;;24.70;65.70;;;;;;5345657;26;20607;-73
2024/04/08 04:03:14;;;;;;;7.00;1.57;;;24.90;64.10;;;;;;5336239;26;20255;-72
2024/04/08 04:05:43;;;;;;;7.07;2.00;;;25.10;64.40;;;;;;5332337;26;20234;-72
2024/04/08 04:08:11;;;;;;;5.17;1.50;;;25.80;62.20;;;;;;5336197;26;20231;-73
2024/04/08 04:10:38;;;;;;;6.50;1.50;;;26.60;60.00;;;;;;5338981;26;20255;-73
2024/04/08 04:13:05;;;;;;;7.67;1.50;;;27.50;56.90;;;;;;5338934;26;20354;-75
2024/04/08 04:15:32;;;;;;;6.53;1.40;;;27.50;56.60;;;;;;5334343;26;20752;-72
2024/04/08 04:18:00;;;;;;;8.83;1.63;;;27.90;55.10;;;;;;5322885;26;20247;-72
2024/04/08 04:20:37;;;;;;;5.67;1.60;;;27.90;55.20;;;;;;5339981;26;20299;-73
2024/04/08 04:23:05;;;;;;;6.10;1.43;;;28.20;54.80;;;;;;5334955;26;20274;-70
2024/04/08 04:25:32;;;;;;;7.70;1.70;;;28.10;54.20;;;;;;5331380;26;20240;-72
2024/04/08 04:28:00;;;;;;;8.00;1.77;;;27.10;55.40;;;;;;5342551;26;20793;-72
2024/04/08 04:30:28;;;;;;;6.03;1.30;;;26.60;57.20;;;;;;5340106;26;20259;-72
2024/04/08 04:33:00;;;;;;;9.37;1.80;;;25.90;59.20;;;;;;5333098;26;20247;-73
2024/04/08 04:35:28;;;;;;;5.00;1.47;;;25.80;60.00;;;;;;5323976;26;20232;-72
2024/04/08 04:37:56;;;;;;;6.27;1.47;;;25.60;61.30;;;;;;5322599;27;20327;-74
2024/04/08 04:40:23;;;;;;;5.87;1.73;;;25.90;61.10;;;;;;5324117;26;20332;-73
2024/04/08 04:42:51;;;;;;;6.13;1.50;;;25.80;61.80;;;;;;5325809;26;20251;-73
2024/04/08 04:45:19;;;;;;;5.37;1.50;;;26.40;58.90;;;;;;5324892;26;20834;-71
2024/04/08 04:47:47;;;;;;;6.57;1.90;;;26.50;58.50;;;;;;5324893;26;20236;-72
2024/04/08 04:50:14;;;;;;;9.13;1.50;;;27.00;57.90;;;;;;5350952;26;20278;-73
2024/04/08 04:52:41;;;;;;;7.57;1.77;;;27.70;55.80;;;;;;5321826;26;20228;-73
2024/04/08 04:55:08;;;;;;;10.23;2.13;;;27.60;55.50;;;;;;5325450;26;20278;-74
2024/04/08 04:57:36;;;;;;;8.20;1.93;;;27.90;55.70;;;;;;5322224;26;20244;-73
2024/04/08 05:00:05;;;;;;;6.03;1.70;;;27.70;55.70;;;;;;5313571;26;20228;-74
2024/04/08 05:02:33;;;;;;;8.87;1.93;;;27.20;57.90;;;;;;5311711;26;20283;-72
2024/04/08 05:05:01;;;;;;;7.60;1.90;;;26.20;58.90;;;;;;5310740;27;20564;-72
2024/04/08 05:07:28;;;;;;;8.57;1.90;;;25.30;62.20;;;;;;5312310;26;20287;-72
2024/04/08 05:09:57;;;;;;;5.83;1.63;;;25.00;63.00;;;;;;5309424;26;20299;-71
2024/04/08 05:12:25;;;;;;;9.43;1.67;;;24.80;63.90;;;;;;5308426;26;20248;-72
2024/04/08 05:14:52;;;;;;;8.00;1.53;;;24.80;63.70;;;;;;5311477;26;20640;-73
2024/04/08 05:17:19;;;;;;;6.47;1.60;;;24.40;64.70;;;;;;5309572;26;20274;-72
2024/04/08 05:19:47;;;;;;;6.83;1.63;;;24.40;64.60;;;;;;5308759;26;20309;-72
2024/04/08 05:22:17;;;;;;;6.63;1.27;;;24.60;64.60;;;;;;5313244;26;20730;-72
2024/04/08 05:24:45;;;;;;;6.07;1.87;;;24.80;63.50;;;;;;5315156;26;20287;-73
2024/04/08 05:27:13;;;;;;;7.93;1.30;;;25.20;62.60;;;;;;5309770;26;20244;-73
2024/04/08 05:29:41;;;;;;;5.10;1.77;;;25.40;61.80;;;;;;5307690;26;20292;-73
2024/04/08 05:32:08;;;;;;;6.77;2.10;;;26.30;59.40;;;;;;5317981;26;20251;-72
2024/04/08 05:34:35;;;;;;;5.77;1.80;;;26.80;58.00;;;;;;5320047;26;20240;-73
2024/04/08 05:37:03;;;;;;;8.67;1.50;;;27.00;56.40;;;;;;5314286;26;21486;-73
2024/04/08 05:39:30;;;;;;;9.73;1.60;;;26.80;56.60;;;;;;5311943;26;20283;-73
2024/04/08 05:41:57;;;;;;;5.03;1.43;;;26.30;59.30;;;;;;5323281;26;20238;-73
2024/04/08 05:44:25;;;;;;;5.00;1.27;;;27.10;57.90;;;;;;5307159;26;20248;-73
2024/04/08 05:46:52;;;;;;;7.07;1.53;;;26.30;59.20;;;;;;5326287;26;20357;-72
2024/04/08 05:49:20;;;;;;;6.03;1.80;;;25.90;60.60;;;;;;5324368;26;20723;-73
2024/04/08 05:51:47;;;;;;;4.17;1.60;;;26.10;60.50;;;;;;5327653;26;20366;-74
2024/04/08 05:54:14;;;;;;;6.87;1.70;;;26.10;60.70;;;;;;5323530;26;20283;-73
2024/04/08 05:56:42;;;;;;;8.17;1.87;;;26.70;59.20;;;;;;5317933;26;20560;-73
2024/04/08 05:59:09;;;;;;;6.10;1.53;;;27.00;57.70;;;;;;5326495;26;20285;-69
2024/04/08 06:01:37;;;;;;;6.77;1.30;;;27.50;56.40;;;;;;5330247;26;20303;-72
2024/04/08 06:04:04;;;;;;;5.37;1.63;;;26.60;58.00;;;;;;5323937;26;20285;-73
2024/04/08 06:06:32;;;;;;;5.10;1.67;;;26.30;59.30;;;;;;5319743;26;20263;-73
2024/04/08 06:09:08;;;;;;;7.50;1.80;;;25.80;60.60;;;;;;5332435;26;20256;-74
2024/04/08 06:11:35;;;;;;;7.60;1.70;;;25.30;62.20;;;;;;5328053;26;20240;-73
2024/04/08 06:14:03;;;;;;;7.53;1.87;;;25.20;62.30;;;;;;5324700;26;20340;-73
2024/04/08 06:16:30;;;;;;;9.40;1.70;;;25.30;62.40;;;;;;5318353;26;20295;-73
2024/04/08 06:18:57;;;;;;;6.93;1.40;;;25.10;62.70;;;;;;5322004;26;20287;-72
2024/04/08 06:21:25;;;;;;;10.20;1.80;;;25.40;63.20;;;;;;5309701;26;20250;-72
2024/04/08 06:23:52;;;;;;;5.27;1.87;;;26.00;60.50;;;;;;5328968;26;20612;-71
2024/04/08 06:26:20;;;;;;;7.63;1.70;;;26.70;58.80;;;;;;5301850;26;20277;-71
2024/04/08 06:28:47;;;;;;;6.63;1.47;;;26.30;57.30;;;;;;5317296;26;20239;-71
2024/04/08 06:31:14;;;;;;;4.67;1.30;;;25.90;58.40;;;;;;5319497;26;20251;-71
2024/04/08 06:33:42;;;;;;;5.63;1.70;;;25.00;60.90;;;;;;5318176;26;20315;-72
2024/04/08 06:36:11;;;;;;;5.40;1.60;;;24.50;63.10;;;;;;5318522;26;20244;-71
2024/04/08 06:38:39;;;;;;;5.60;1.70;;;24.10;64.70;;;;;;5312671;26;20244;-73
2024/04/08 06:41:06;;;;;;;6.23;1.80;;;23.90;65.10;;;;;;5310597;26;20251;-72
2024/04/08 06:43:35;;;;;;;6.40;1.83;;;23.70;65.60;;;;;;5315807;26;20235;-73
2024/04/08 06:46:02;;;;;;;8.77;2.00;;;23.40;66.50;;;;;;5313727;26;20235;-73
2024/04/08 06:48:29;;;;;;;4.17;1.27;;;24.40;63.60;;;;;;5316689;26;20287;-72
2024/04/08 06:50:57;;;;;;;9.23;2.57;;;24.30;63.90;;;;;;5326905;26;20240;-72
2024/04/08 06:53:25;;;;;;;6.23;1.77;;;25.00;62.00;;;;;;5311476;26;20343;-71
2024/04/08 06:55:52;;;;;;;8.50;2.10;;;25.20;61.40;;;;;;5308416;26;20239;-74
2024/04/08 06:58:20;;;;;;;7.43;1.80;;;24.70;62.70;;;;;;5309134;26;20275;-73
2024/04/08 07:00:48;;;;;;;6.53;1.30;;;24.30;65.40;;;;;;5309876;26;20256;-72
2024/04/08 07:03:16;;;;;;;8.07;1.80;;;24.00;65.90;;;;;;5307779;26;20293;-72
2024/04/08 07:05:46;;;;;;;9.20;1.67;;;23.80;66.70;;;;;;5304341;27;20777;-73
2024/04/08 07:08:15;;;;;;;6.30;1.33;;;23.50;67.50;;;;;;5310199;26;20765;-73
2024/04/08 07:10:44;;;;;;;7.53;1.40;;;23.30;68.20;;;;;;5309842;26;20240;-72
2024/04/08 07:13:12;;;;;;;4.17;1.60;;;23.20;69.00;;;;;;5307953;26;20275;-72
2024/04/08 07:15:39;;;;;;;7.90;2.43;;;23.10;69.30;;;;;;5306987;26;20308;-72
2024/04/08 07:18:07;;;;;;;5.73;1.67;;;22.80;70.00;;;;;;5308581;27;20228;-71
2024/04/08 07:20:34;;;;;;;7.33;1.60;;;22.70;70.60;;;;;;5301699;26;20233;-72
2024/04/08 07:23:03;;;;;;;6.93;1.60;;;22.60;71.30;;;;;;5310285;26;20673;-73
2024/04/08 07:25:31;;;;;;;6.10;1.80;;;22.50;71.30;;;;;;5307808;26;20240;-73
2024/04/08 07:27:58;;;;;;;6.57;1.57;;;22.40;71.70;;;;;;5310247;26;20326;-73
2024/04/08 07:30:26;;;;;;;7.50;1.40;;;22.40;72.10;;;;;;5309419;26;20236;-72
2024/04/08 07:32:54;;;;;;;8.90;1.70;;;22.20;72.20;;;;;;5304348;27;20244;-72
2024/04/08 07:35:22;;;;;;;6.87;2.10;;;22.30;72.40;;;;;;5309802;26;20290;-74
2024/04/08 07:37:49;;;;;;;11.17;1.90;;;22.30;72.80;;;;;;5304884;26;20273;-73
2024/04/08 07:40:16;;;;;;;4.33;1.67;;;22.20;72.80;;;;;;5311765;26;20236;-73
2024/04/08 07:42:44;;;;;;;8.73;2.23;;;22.20;73.30;;;;;;5307395;27;20240;-73
2024/04/08 07:45:11;;;;;;;7.20;1.93;;;22.10;73.60;;;;;;5307971;26;20278;-72
2024/04/08 07:47:40;;;;;;;8.67;1.80;;;22.10;73.90;;;;;;5305812;26;20603;-74
2024/04/08 07:50:08;;;;;;;6.40;2.97;;;22.00;74.10;;;;;;5297821;26;20278;-73
2024/04/08 07:52:37;;;;;;;8.83;1.90;;;22.00;74.20;;;;;;5305186;26;20354;-72
2024/04/08 07:55:06;;;;;;;6.10;1.90;;;21.90;74.70;;;;;;5301718;26;20276;-73
2024/04/08 07:57:33;;;;;;;9.97;2.20;;;21.80;75.00;;;;;;5292082;26;20240;-73
2024/04/08 08:00:01;;;;;;;9.53;2.07;;;21.80;74.90;;;;;;5310207;26;20279;-73
2024/04/08 08:02:29;;;;;;;10.63;2.67;;;21.80;75.40;;;;;;5297008;26;20244;-73
2024/04/08 08:04:56;;;;;;;6.30;2.00;;;21.80;75.60;;;;;;5306905;26;20617;-73
2024/04/08 08:07:24;;;;;;;10.90;2.40;;;21.70;75.80;;;;;;5304052;26;20299;-73
2024/04/08 08:09:52;;;;;;;5.33;2.37;;;21.70;76.10;;;;;;5306622;26;20240;-72
2024/04/08 08:12:20;;;;;;;13.10;2.80;;;21.60;76.40;;;;;;5306383;26;20245;-73
2024/04/08 08:14:47;;;;;;;5.47;2.43;;;21.60;76.70;;;;;;5330763;26;20280;-72
2024/04/08 08:17:15;;;;;;;9.77;3.10;;;21.50;76.80;;;;;;5307223;26;20353;-72
2024/04/08 08:19:43;;;;;;;9.40;3.47;;;21.50;77.10;;;;;;5313083;26;20342;-72
2024/04/08 08:22:11;;;;;;;10.27;4.97;;;21.50;77.20;;;;;;5311808;26;20240;-73
2024/04/08 08:24:38;;;;;;;9.83;4.13;;;21.40;77.40;;;;;;5305933;26;20244;-72
2024/04/08 08:27:06;;;;;;;12.37;4.00;;;21.30;77.80;;;;;;5296722;26;20245;-72
2024/04/08 08:29:33;;;;;;;7.63;3.20;;;21.30;78.00;;;;;;5310898;26;20228;-73
2024/04/08 08:32:01;;;;;;;9.90;2.93;;;21.30;78.40;;;;;;5310438;26;20591;-73
2024/04/08 08:34:29;;;;;;;8.93;2.97;;;21.30;78.70;;;;;;5323781;26;20240;-72
2024/04/08 08:36:56;;;;;;;9.63;3.00;;;21.20;78.90;;;;;;5314552;26;20722;-73
2024/04/08 08:39:23;;;;;;;8.37;2.70;;;21.20;79.20;;;;;;5325438;26;20266;-72
2024/04/08 08:41:55;;;;;;;6.93;2.70;;;21.20;79.60;;;;;;5312500;26;20240;-72
2024/04/08 08:44:24;;;;;;;16.50;3.63;;;21.20;79.80;;;;;;5314189;26;20560;-73
2024/04/08 08:46:52;;;;;;;10.20;3.33;;;21.20;79.80;;;;;;5319032;26;20232;-73
2024/04/08 08:49:21;;;;;;;10.20;3.10;;;21.10;80.00;;;;;;5312962;26;20244;-73
2024/04/08 08:51:48;;;;;;;15.73;3.60;;;21.10;80.10;;;;;;5319208;26;20233;-72
2024/04/08 08:54:16;;;;;;;6.23;3.40;;;21.10;80.20;;;;;;5312577;26;20236;-73
2024/04/08 08:56:43;;;;;;;8.70;3.33;;;21.10;80.20;;;;;;5313056;26;20723;-73
2024/04/08 08:59:14;;;;;;;7.53;3.27;;;21.10;80.20;;;;;;5313211;26;20345;-73
2024/04/08 09:01:42;;;;;;;15.83;3.90;;;21.00;80.20;;;;;;5312004;26;20232;-71
2024/04/08 09:04:14;;;;;;;14.77;3.97;;;21.00;80.00;;;;;;5315939;26;20692;-72
2024/04/08 09:06:53;;;;;;;5.93;3.23;;;21.10;80.10;;;;;;5315758;26;20307;-71
2024/04/08 09:09:21;;;;;;;11.63;4.83;;;21.00;80.20;;;;;;5319843;26;20231;-72
2024/04/08 09:11:51;;;;;;;11.43;5.13;;;21.10;80.20;;;;;;5306479;26;20252;-72
2024/04/08 09:14:19;;;;;;;10.53;5.07;;;21.00;80.40;;;;;;5317076;26;20587;-72
2024/04/08 09:16:48;;;;;;;12.10;4.37;;;21.00;80.70;;;;;;5310321;26;20299;-72
2024/04/08 09:19:16;;;;;;;9.53;3.57;;;21.00;80.90;;;;;;5347213;26;20589;-72
2024/04/08 09:21:43;;;;;;;10.83;6.37;;;21.00;81.30;;;;;;5316489;26;20244;-71
2024/04/08 09:24:11;;;;;;;13.47;7.20;;;21.00;81.50;;;;;;5323007;26;20263;-72
2024/04/08 09:26:39;;;;;;;16.03;7.63;;;20.90;81.60;;;;;;5311057;26;20361;-72
2024/04/08 09:29:06;;;;;;;13.50;8.67;;;20.90;81.70;;;;;;5316477;26;20278;-71
2024/04/08 09:31:34;;;;;;;13.50;8.57;;;20.90;82.00;;;;;;5311227;26;20314;-71
2024/04/08 09:34:02;;;;;;;13.97;11.53;;;20.90;82.10;;;;;;5303606;26;20252;-73
2024/04/08 09:36:31;;;;;;;15.53;13.93;;;20.90;82.20;;;;;;5313123;26;20618;-73
2024/04/08 09:39:03;;;;;;;18.57;16.80;;;20.80;82.40;;;;;;5309086;26;20723;-73
2024/04/08 09:41:32;;;;;;;24.30;22.20;;;20.80;82.50;;;;;;5315724;26;20244;-72
2024/04/08 09:44:01;;;;;;;28.17;25.33;;;20.80;82.70;;;;;;5325598;26;20240;-72
2024/04/08 09:46:29;;;;;;;32.03;29.23;;;20.80;82.80;;;;;;5304302;26;20256;-71
2024/04/08 09:48:58;;;;;;;31.03;29.10;;;20.70;82.90;;;;;;5309778;26;20233;-74
2024/04/08 09:51:26;;;;;;;33.10;30.57;;;20.70;83.00;;;;;;5314965;26;20236;-73
2024/04/08 09:53:53;;;;;;;37.17;34.00;;;20.60;82.80;;;;;;5319135;26;20233;-74
2024/04/08 09:56:28;;;;;;;39.43;36.43;;;20.60;83.10;;;;;;5307361;26;20623;-73
2024/04/08 09:59:32;;;;;;;45.50;42.33;;;20.50;83.10;;;;;;5313356;26;20834;-73
2024/04/08 10:01:59;;;;;;;49.57;46.37;;;20.40;83.20;;;;;;5238007;27;20246;-73
2024/04/08 10:04:31;;;;;;;47.67;44.77;;;20.50;83.30;;;;;;5297004;26;20252;-73
2024/04/08 10:07:02;;;;;;;54.27;50.23;;;20.40;83.30;;;;;;5310802;26;20241;-73
2024/04/08 10:09:29;;;;;;;50.87;47.10;;;20.30;83.40;;;;;;5305621;26;20590;-73
2024/04/08 10:11:56;;;;;;;53.23;49.73;;;20.30;83.50;;;;;;5305178;26;20232;-74
2024/04/08 10:14:25;;;;;;;55.73;52.13;;;20.30;83.50;;;;;;5312366;26;20274;-72
2024/04/08 10:16:53;;;;;;;54.93;51.33;;;20.30;83.90;;;;;;5313818;26;20228;-73
2024/04/08 10:19:23;;;;;;;62.00;58.13;;;20.30;84.10;;;;;;5306628;26;20784;-72
2024/04/08 10:21:59;;;;;;;59.73;56.13;;;20.30;83.90;;;;;;5309628;26;20844;-72
2024/04/08 10:24:39;;;;;;;63.87;60.13;;;20.30;83.80;;;;;;5319348;26;20240;-72
2024/04/08 10:27:08;;;;;;;66.10;62.23;;;20.20;83.80;;;;;;5309967;26;20552;-73
2024/04/08 10:29:36;;;;;;;68.73;64.63;;;20.20;84.10;;;;;;5305460;26;20606;-73
2024/04/08 10:32:04;;;;;;;67.23;63.10;;;20.10;84.10;;;;;;5311260;26;20635;-71
2024/04/08 10:34:34;;;;;;;68.80;64.40;;;20.10;84.30;;;;;;5310458;26;20233;-72
2024/04/08 10:37:01;;;;;;;72.10;66.90;;;20.00;84.50;;;;;;5313439;26;20912;-73
2024/04/08 10:39:29;;;;;;;75.93;71.17;;;20.00;84.60;;;;;;5310108;26;20236;-73
2024/04/08 10:42:11;;;;;;;74.33;69.40;;;20.00;84.80;;;;;;5313342;26;20304;-73
2024/04/08 10:44:39;;;;;;;80.97;76.03;;;20.00;84.90;;;;;;5308427;26;20245;-73
2024/04/08 10:47:10;;;;;;;84.57;79.10;;;20.00;85.20;;;;;;5306077;26;20283;-73
2024/04/08 10:49:37;;;;;;;85.90;80.60;;;20.00;85.10;;;;;;5302586;26;20806;-72
2024/04/08 10:52:04;;;;;;;91.13;85.60;;;20.00;85.30;;;;;;5308971;26;20228;-74
2024/04/08 10:54:32;;;;;;;101.47;95.70;;;20.00;85.20;;;;;;5307196;26;20275;-73
2024/04/08 10:57:00;;;;;;;101.70;95.47;;;19.90;85.30;;;;;;5307585;26;20236;-72
2024/04/08 10:59:27;;;;;;;109.03;102.73;;;19.90;85.40;;;;;;5311336;26;20245;-73
2024/04/08 11:01:56;;;;;;;111.00;104.47;;;19.90;85.50;;;;;;5312384;26;20240;-72
2024/04/08 11:04:24;;;;;;;114.77;108.03;;;19.90;85.60;;;;;;5306798;26;20248;-71
2024/04/08 11:06:52;;;;;;;118.27;111.87;;;19.80;85.70;;;;;;5303880;26;20247;-72
2024/04/08 11:09:19;;;;;;;112.70;106.40;;;19.80;85.90;;;;;;5312674;26;20804;-72
2024/04/08 11:11:47;;;;;;;116.33;110.00;;;19.80;86.10;;;;;;5311497;26;20271;-72
2024/04/08 11:14:15;;;;;;;118.43;111.80;;;19.80;86.00;;;;;;5311111;26;20227;-73
2024/04/08 11:16:42;;;;;;;121.07;114.17;;;19.70;86.00;;;;;;5312997;26;20232;-72
2024/04/08 11:19:12;;;;;;;119.43;112.57;;;19.70;86.20;;;;;;5314460;26;20231;-72
2024/04/08 11:21:39;;;;;;;123.50;116.27;;;19.70;86.20;;;;;;5316760;26;20232;-72
2024/04/08 11:24:11;;;;;;;131.43;123.70;;;19.70;86.30;;;;;;5308691;26;20225;-72
2024/04/08 11:26:39;;;;;;;126.20;118.77;;;19.70;86.20;;;;;;5302408;27;20734;-71
2024/04/08 11:29:07;;;;;;;131.20;124.10;;;19.70;86.40;;;;;;5300689;26;20284;-73
2024/04/08 11:31:37;;;;;;;131.23;123.93;;;19.60;86.10;;;;;;5305611;26;20299;-72
2024/04/08 11:34:05;;;;;;;126.83;119.97;;;19.60;86.50;;;;;;5310053;26;20228;-72
2024/04/08 11:36:32;;;;;;;131.17;123.60;;;19.50;86.70;;;;;;5305894;26;20321;-72
2024/04/08 11:39:00;;;;;;;138.17;130.00;;;19.50;86.70;;;;;;5303840;26;20278;-73
2024/04/08 11:41:27;;;;;;;147.40;139.13;;;19.50;86.90;;;;;;5309522;26;20282;-72
2024/04/08 11:43:54;;;;;;;142.77;134.87;;;19.50;87.00;;;;;;5312400;26;20600;-74
2024/04/08 11:46:24;;;;;;;146.27;138.00;;;19.50;87.00;;;;;;5306482;26;20248;-72
2024/04/08 11:48:51;;;;;;;143.43;135.37;;;19.50;86.90;;;;;;5307145;27;20362;-72
2024/04/08 11:51:18;;;;;;;157.33;148.40;;;19.50;87.00;;;;;;5307768;26;20616;-72
2024/04/08 11:53:45;;;;;;;149.23;141.00;;;19.40;87.00;;;;;;5306835;26;20253;-72
2024/04/08 11:56:13;;;;;;;143.90;136.00;;;19.50;86.90;;;;;;5306812;26;20248;-72
2024/04/08 11:58:41;;;;;;;143.10;135.17;;;19.30;87.00;;;;;;5303769;26;20598;-72
2024/04/08 12:01:09;;;;;;;143.77;135.60;;;19.30;87.10;;;;;;5304794;26;20769;-71
2024/04/08 12:03:36;;;;;;;152.83;144.33;;;19.30;87.30;;;;;;5335820;26;20254;-72
2024/04/08 12:06:04;;;;;;;163.97;154.57;;;19.30;87.40;;;;;;5309579;26;20228;-71
2024/04/08 12:08:33;;;;;;;154.77;145.87;;;19.30;87.30;;;;;;5310578;26;20577;-71
2024/04/08 12:11:01;;;;;;;161.23;152.37;;;19.30;87.50;;;;;;5312758;26;20236;-72
2024/04/08 12:13:28;;;;;;;169.17;159.93;;;19.20;87.50;;;;;;5310832;26;20276;-71
2024/04/08 12:15:55;;;;;;;172.30;162.53;;;19.20;87.60;;;;;;5310573;26;20224;-72
2024/04/08 12:18:25;;;;;;;177.13;167.17;;;19.20;87.70;;;;;;5311823;26;20722;-71
2024/04/08 12:20:52;;;;;;;172.80;163.80;;;19.20;87.90;;;;;;5312358;27;20228;-72
2024/04/08 12:23:20;;;;;;;167.20;158.07;;;19.20;88.00;;;;;;5312511;26;20563;-72
2024/04/08 12:25:47;;;;;;;173.20;164.00;;;19.20;87.90;;;;;;5308937;26;20279;-71
2024/04/08 12:28:15;;;;;;;182.77;173.27;;;19.10;88.10;;;;;;5310000;26;20240;-71
2024/04/08 12:30:42;;;;;;;182.30;172.30;;;19.10;88.00;;;;;;5308506;26;20252;-72
2024/04/08 12:33:10;;;;;;;193.27;182.77;;;19.10;88.10;;;;;;5312120;26;20274;-71
2024/04/08 12:35:37;;;;;;;199.03;188.17;;;19.10;88.10;;;;;;5312618;26;20275;-72
2024/04/08 12:38:09;;;;;;;193.60;182.97;;;19.00;88.20;;;;;;5312980;26;20290;-71
2024/04/08 12:40:36;;;;;;;202.13;191.07;;;19.00;88.40;;;;;;5313096;26;20236;-72
2024/04/08 12:43:04;;;;;;;197.10;186.80;;;19.00;88.50;;;;;;5313309;27;20346;-73
2024/04/08 12:45:31;;;;;;;207.83;196.60;;;19.00;88.40;;;;;;5311146;26;20252;-72